Dorval, Canada
Current Conditions -  °F | °C
As of 3:00 AM on Monday 24 Nov 2014 (Local Time) from CYUL Reporting Station
Overcast Overcast  
Wind Chill: 40°   Ceiling: 10000
Heat Index: 46°   Visibility: 15mi
Dew Point: 37°   Wind: 14mph
Humidity: 71%   Direction: 140°SE
Pressure: 29.77"   Gusts: 20mph
Location:  45.45°N, 73.75°W
Report Text: CYUL 240800Z 14012G17KT 15SM BKN100 OVC250 08/03 A2977 RMK AC7CI1 PRESFR SLP081
Loading
Personal Weather Stations






























Interactive Weather Map New forecast layout! Learn more

10-Day Weather Forecast

Advertisements
Track Severe Weather on mobile